createdAt,value
2023-01-09T00:00:56.870Z,28.97
2023-01-09T00:03:23.547Z,31.53
2023-01-09T00:05:50.425Z,31.10
2023-01-09T00:08:17.183Z,27.80
2023-01-09T00:10:43.761Z,28.70
2023-01-09T00:13:13.296Z,29.50
2023-01-09T00:15:40.915Z,27.30
2023-01-09T00:18:08.254Z,28.80
2023-01-09T00:20:36.979Z,28.13
2023-01-09T00:23:04.479Z,28.70
2023-01-09T00:25:31.649Z,28.30
2023-01-09T00:27:58.917Z,29.70
2023-01-09T00:30:26.191Z,25.47
2023-01-09T00:32:55.243Z,31.10
2023-01-09T00:35:24.389Z,29.20
2023-01-09T00:37:51.106Z,27.73
2023-01-09T00:40:18.612Z,31.87
2023-01-09T00:42:49.416Z,28.60
2023-01-09T00:45:20.171Z,26.93
2023-01-09T00:47:50.007Z,31.10
2023-01-09T00:50:25.329Z,28.60
2023-01-09T00:52:55.838Z,31.67
2023-01-09T00:55:22.745Z,29.53
2023-01-09T00:57:55.419Z,30.03
2023-01-09T01:00:22.019Z,29.60
2023-01-09T01:02:48.673Z,28.40
2023-01-09T01:05:33.843Z,28.07
2023-01-09T01:08:00.494Z,28.80
2023-01-09T01:10:27.387Z,30.00
2023-01-09T01:12:54.212Z,29.63
2023-01-09T01:15:21.238Z,32.50
2023-01-09T01:17:49.451Z,31.83
2023-01-09T01:20:19.164Z,32.40
2023-01-09T01:22:45.994Z,31.50
2023-01-09T01:25:14.151Z,30.57
2023-01-09T01:27:41.000Z,32.23
2023-01-09T01:30:10.339Z,34.37
2023-01-09T01:32:37.548Z,31.93
2023-01-09T01:35:04.524Z,32.87
2023-01-09T01:37:31.309Z,35.80
2023-01-09T01:39:58.004Z,34.37
2023-01-09T01:42:25.080Z,33.20
2023-01-09T01:45:11.422Z,30.60
2023-01-09T01:47:59.822Z,30.83
2023-01-09T01:50:33.678Z,31.60
2023-01-09T01:53:07.763Z,30.53
2023-01-09T01:55:40.651Z,31.70
2023-01-09T01:58:11.496Z,29.83
2023-01-09T02:00:42.409Z,29.40
2023-01-09T02:03:09.115Z,29.20
2023-01-09T02:05:36.926Z,26.97
2023-01-09T02:08:05.256Z,29.80
2023-01-09T02:10:32.398Z,27.77
2023-01-09T02:12:59.759Z,28.03
2023-01-09T02:15:31.734Z,29.10
2023-01-09T02:18:11.652Z,27.50
2023-01-09T02:20:58.449Z,26.97
2023-01-09T02:23:48.521Z,27.27
2023-01-09T02:26:41.296Z,27.37
2023-01-09T02:29:16.947Z,27.37
2023-01-09T02:31:54.162Z,28.00
2023-01-09T02:34:29.499Z,30.17
2023-01-09T02:37:09.660Z,26.97
2023-01-09T02:39:50.258Z,26.00
2023-01-09T02:42:24.023Z,26.70
2023-01-09T02:44:51.288Z,29.40
2023-01-09T02:47:22.046Z,27.83
2023-01-09T02:49:51.722Z,26.43
2023-01-09T02:52:33.188Z,28.60
2023-01-09T02:55:35.143Z,29.10
2023-01-09T02:58:07.299Z,32.43
2023-01-09T03:00:53.003Z,31.93
2023-01-09T03:04:04.369Z,31.30
2023-01-09T03:06:50.689Z,29.73
2023-01-09T03:09:20.414Z,28.83
2023-01-09T03:11:54.075Z,34.17
2023-01-09T03:14:34.962Z,35.67
2023-01-09T03:17:04.349Z,35.40
2023-01-09T03:19:32.309Z,38.07
2023-01-09T03:21:59.223Z,41.20
2023-01-09T03:24:34.411Z,42.10
2023-01-09T03:27:03.469Z,39.17
2023-01-09T03:29:33.472Z,44.47
2023-01-09T03:32:20.943Z,41.03
2023-01-09T03:34:47.736Z,45.40
2023-01-09T03:37:15.913Z,42.23
2023-01-09T03:39:43.571Z,44.07
2023-01-09T03:42:10.420Z,45.37
2023-01-09T03:44:47.711Z,46.87
2023-01-09T03:47:18.385Z,46.63
2023-01-09T03:49:46.987Z,45.63
2023-01-09T03:52:20.831Z,43.93
2023-01-09T03:54:57.524Z,48.17
2023-01-09T03:58:01.571Z,50.03
2023-01-09T04:00:37.132Z,47.87
2023-01-09T04:03:08.647Z,45.50
2023-01-09T04:05:41.914Z,45.20
2023-01-09T04:08:12.743Z,45.73
2023-01-09T04:10:59.479Z,47.77
2023-01-09T04:13:44.836Z,43.97
2023-01-09T04:16:23.047Z,45.43
2023-01-09T04:18:56.253Z,41.10
2023-01-09T04:22:06.039Z,45.50
2023-01-09T04:24:36.157Z,40.53
2023-01-09T04:27:30.080Z,38.43
2023-01-09T04:31:13.125Z,40.20
2023-01-09T04:33:23.727Z,40.47
2023-01-09T04:36:00.962Z,39.83
2023-01-09T04:38:48.250Z,44.93
2023-01-09T04:41:42.724Z,46.17
2023-01-09T04:44:29.669Z,44.90
2023-01-09T04:47:04.019Z,44.50
2023-01-09T04:49:46.792Z,52.33
2023-01-09T04:52:25.821Z,51.33
2023-01-09T04:55:03.469Z,51.80
2023-01-09T04:57:43.250Z,45.73
2023-01-09T05:00:12.222Z,49.07
2023-01-09T05:02:43.075Z,45.10
2023-01-09T05:05:14.661Z,42.63
2023-01-09T05:07:47.368Z,41.37
2023-01-09T05:10:23.000Z,41.00
2023-01-09T05:12:52.620Z,45.13
2023-01-09T05:15:21.994Z,42.70
2023-01-09T05:17:50.660Z,45.23
2023-01-09T05:20:23.442Z,41.10
2023-01-09T05:22:54.634Z,40.07
2023-01-09T05:25:26.097Z,35.30
2023-01-09T05:27:59.818Z,38.20
2023-01-09T05:30:27.938Z,41.17
2023-01-09T05:32:56.983Z,36.20
2023-01-09T05:35:23.778Z,37.20
2023-01-09T05:37:52.670Z,39.53
2023-01-09T05:40:20.680Z,35.67
2023-01-09T05:42:47.494Z,41.57
2023-01-09T05:45:14.128Z,39.67
2023-01-09T05:47:41.304Z,37.10
2023-01-09T05:50:11.917Z,37.57
2023-01-09T05:52:38.929Z,34.33
2023-01-09T05:55:06.957Z,35.90
2023-01-09T05:57:33.699Z,37.97
2023-01-09T06:00:00.383Z,37.27
2023-01-09T06:02:27.169Z,35.73
2023-01-09T06:04:56.196Z,37.87
2023-01-09T06:07:31.895Z,36.10
2023-01-09T06:10:02.080Z,35.70
2023-01-09T06:12:30.911Z,37.70
2023-01-09T06:14:57.820Z,32.77
2023-01-09T06:17:25.868Z,36.00
2023-01-09T06:20:00.585Z,33.80
2023-01-09T06:22:27.290Z,34.37
2023-01-09T06:24:53.900Z,35.23
2023-01-09T06:27:20.529Z,33.67
2023-01-09T06:29:47.054Z,36.30
2023-01-09T06:32:13.856Z,36.37
2023-01-09T06:34:40.515Z,35.97
2023-01-09T06:37:07.148Z,34.73
2023-01-09T06:39:33.963Z,32.27
2023-01-09T06:42:00.643Z,33.83
2023-01-09T06:44:29.886Z,33.30
2023-01-09T06:46:58.893Z,30.03
2023-01-09T06:49:25.576Z,31.03
2023-01-09T06:51:53.301Z,29.67
2023-01-09T06:54:20.918Z,30.70
2023-01-09T06:56:47.965Z,31.33
2023-01-09T06:59:17.200Z,32.60
2023-01-09T07:01:43.859Z,31.23
2023-01-09T07:04:13.311Z,28.63
2023-01-09T07:06:41.121Z,30.37
2023-01-09T07:09:13.377Z,32.60
2023-01-09T07:11:44.230Z,33.63
2023-01-09T07:14:10.901Z,33.40
2023-01-09T07:16:40.159Z,32.53
2023-01-09T07:19:07.908Z,31.03
2023-01-09T07:21:34.650Z,32.37
2023-01-09T07:24:03.649Z,31.43
2023-01-09T07:26:30.307Z,30.90
2023-01-09T07:28:57.112Z,30.63
2023-01-09T07:31:23.830Z,30.20
2023-01-09T07:33:50.523Z,29.00
2023-01-09T07:36:17.142Z,31.10
2023-01-09T07:38:43.680Z,29.57
2023-01-09T07:41:10.402Z,34.37
2023-01-09T07:43:38.430Z,33.73
2023-01-09T07:46:05.574Z,32.87
2023-01-09T07:48:35.500Z,32.70
2023-01-09T07:51:06.785Z,30.77
2023-01-09T07:53:33.485Z,30.23
2023-01-09T07:56:00.113Z,29.63
2023-01-09T07:58:26.765Z,28.73
2023-01-09T08:00:55.906Z,29.97
2023-01-09T08:03:22.566Z,28.30
2023-01-09T08:05:51.489Z,30.47
2023-01-09T08:08:20.914Z,31.77
2023-01-09T08:10:50.222Z,30.17
2023-01-09T08:13:17.130Z,30.90
2023-01-09T08:15:46.262Z,28.80
2023-01-09T08:18:13.149Z,28.63
2023-01-09T08:20:39.754Z,28.60
2023-01-09T08:23:08.691Z,31.90
2023-01-09T08:25:35.334Z,29.27
2023-01-09T08:28:06.591Z,28.43
2023-01-09T08:30:33.320Z,29.87
2023-01-09T08:33:01.032Z,27.80
2023-01-09T08:35:28.076Z,28.97
2023-01-09T08:37:54.831Z,31.20
2023-01-09T08:40:21.389Z,27.97
2023-01-09T08:43:06.882Z,26.83
2023-01-09T08:45:53.240Z,24.00
2023-01-09T08:48:19.859Z,23.63
2023-01-09T08:50:46.753Z,21.33
2023-01-09T08:53:15.868Z,25.73
2023-01-09T08:55:43.300Z,27.00
2023-01-09T08:58:12.110Z,24.40
2023-01-09T09:00:39.360Z,23.90
2023-01-09T09:03:13.562Z,22.70
2023-01-09T09:05:42.636Z,22.70
2023-01-09T09:08:10.677Z,20.03
2023-01-09T09:10:41.443Z,21.00
2023-01-09T09:13:08.015Z,19.63
2023-01-09T09:15:41.337Z,17.10
2023-01-09T09:18:10.507Z,17.97
2023-01-09T09:20:40.246Z,17.40
2023-01-09T09:23:08.356Z,18.07
2023-01-09T09:25:38.678Z,16.17
2023-01-09T09:28:06.143Z,16.43
2023-01-09T09:30:33.154Z,14.90
2023-01-09T09:32:59.832Z,14.33
2023-01-09T09:35:28.518Z,13.53
2023-01-09T09:38:05.016Z,16.20
2023-01-09T09:41:01.827Z,14.87
2023-01-09T09:44:08.759Z,11.60
2023-01-09T09:46:47.021Z,12.50
2023-01-09T09:49:27.849Z,16.13
2023-01-09T09:52:10.988Z,8.57
2023-01-09T09:54:55.737Z,10.00
2023-01-09T09:57:28.947Z,6.90
2023-01-09T09:59:58.381Z,8.23
2023-01-09T10:02:30.475Z,6.00
2023-01-09T10:05:02.213Z,6.67
2023-01-09T10:07:35.394Z,5.47
2023-01-09T10:10:13.368Z,4.33
2023-01-09T10:12:46.037Z,4.93
2023-01-09T10:15:18.471Z,4.50
2023-01-09T10:17:54.181Z,4.43
2023-01-09T10:21:01.013Z,4.63
2023-01-09T10:23:49.110Z,4.80
2023-01-09T10:26:57.210Z,7.43
2023-01-09T10:29:44.896Z,7.93
2023-01-09T10:32:32.291Z,5.47
2023-01-09T10:35:47.436Z,6.93
2023-01-09T10:38:29.126Z,5.70
2023-01-09T10:41:08.659Z,6.17
2023-01-09T10:43:47.271Z,10.40
2023-01-09T10:46:30.929Z,3.17
2023-01-09T10:49:05.827Z,2.83
2023-01-09T10:51:50.984Z,2.97
2023-01-09T10:54:21.554Z,2.10
2023-01-09T10:56:57.429Z,2.93
2023-01-09T10:59:32.825Z,3.77
2023-01-09T11:02:06.482Z,5.73
2023-01-09T11:04:46.905Z,4.33
2023-01-09T11:07:28.722Z,3.20
2023-01-09T11:10:43.160Z,2.93
2023-01-09T11:13:51.259Z,4.53
2023-01-09T11:16:32.054Z,2.90
2023-01-09T11:19:01.128Z,3.90
2023-01-09T11:21:27.697Z,3.53
2023-01-09T11:24:05.222Z,3.13
2023-01-09T11:26:38.393Z,2.20
2023-01-09T11:29:13.152Z,1.93
2023-01-09T11:31:41.403Z,2.00
2023-01-09T11:34:23.591Z,2.20
2023-01-09T11:37:00.521Z,2.90
2023-01-09T11:39:34.010Z,1.93
2023-01-09T11:42:05.870Z,1.87
2023-01-09T11:44:34.433Z,1.90
2023-01-09T11:47:04.763Z,2.47
2023-01-09T11:49:33.709Z,3.53
2023-01-09T11:52:20.991Z,2.30
2023-01-09T11:54:56.169Z,1.83
2023-01-09T11:57:25.421Z,2.57
2023-01-09T12:00:03.458Z,3.40
2023-01-09T12:02:53.450Z,3.20
2023-01-09T12:05:37.752Z,1.80
2023-01-09T12:08:38.450Z,2.23
2023-01-09T12:11:28.784Z,3.43
2023-01-09T12:14:37.339Z,1.67
2023-01-09T12:17:39.219Z,2.60
2023-01-09T12:20:39.385Z,1.60
2023-01-09T12:23:24.794Z,1.27
2023-01-09T12:26:29.989Z,2.67
2023-01-09T12:29:02.478Z,3.43
2023-01-09T12:31:58.221Z,3.07
2023-01-09T12:34:34.645Z,1.83
2023-01-09T12:37:23.139Z,2.50
2023-01-09T12:40:15.341Z,1.70
2023-01-09T12:43:14.257Z,1.57
2023-01-09T12:46:10.896Z,3.50
2023-01-09T12:48:46.467Z,2.07
2023-01-09T12:51:43.457Z,2.80
2023-01-09T12:58:06.749Z,2.37
2023-01-09T13:00:44.184Z,1.10
2023-01-09T13:03:14.842Z,1.13
2023-01-09T13:05:47.349Z,1.73
2023-01-09T13:08:40.892Z,1.57
2023-01-09T13:11:20.026Z,1.30
2023-01-09T13:14:00.445Z,1.77
2023-01-09T13:16:36.569Z,2.73
2023-01-09T13:21:53.746Z,1.47
2023-01-09T13:24:25.209Z,1.60
2023-01-09T13:26:58.449Z,1.83
2023-01-09T13:29:29.806Z,1.77
2023-01-09T13:32:03.445Z,1.40
2023-01-09T13:34:30.849Z,1.10
2023-01-09T13:36:57.731Z,2.17
2023-01-09T13:39:29.283Z,2.33
2023-01-09T13:42:18.337Z,33.00
2023-01-09T13:44:48.753Z,17.97
2023-01-09T13:47:24.781Z,5.37
2023-01-09T13:49:51.460Z,23.90
2023-01-09T13:52:38.615Z,14.73
2023-01-09T13:55:25.128Z,3.13
2023-01-09T13:58:04.265Z,2.80
2023-01-09T14:00:37.041Z,2.90
2023-01-09T14:03:26.166Z,4.83
2023-01-09T14:05:52.636Z,2.73
2023-01-09T14:08:21.498Z,2.97
2023-01-09T14:10:53.377Z,2.67
2023-01-09T14:13:25.756Z,3.43
2023-01-09T14:16:01.420Z,3.20
2023-01-09T14:18:30.433Z,3.47
2023-01-09T14:21:00.982Z,3.20
2023-01-09T14:26:25.799Z,2.93
2023-01-09T14:28:52.422Z,2.60
2023-01-09T14:31:31.154Z,1.60
2023-01-09T14:34:39.827Z,2.13
2023-01-09T14:37:12.382Z,1.27
2023-01-09T14:39:40.478Z,1.97
2023-01-09T14:42:15.806Z,3.07
2023-01-09T14:45:03.492Z,2.73
2023-01-09T14:47:50.511Z,2.20
2023-01-09T14:50:38.195Z,1.43
2023-01-09T14:53:07.074Z,2.67
2023-01-09T14:55:52.365Z,2.07
2023-01-09T14:58:26.702Z,2.73
2023-01-09T15:00:56.109Z,1.40
2023-01-09T15:03:23.399Z,4.33
2023-01-09T15:05:51.766Z,1.40
2023-01-09T15:08:24.024Z,2.63
2023-01-09T15:10:52.751Z,2.20
2023-01-09T15:13:27.175Z,2.63
2023-01-09T15:15:53.672Z,2.30
2023-01-09T15:18:25.363Z,3.37
2023-01-09T15:20:53.622Z,2.73
2023-01-09T15:23:31.769Z,4.07
2023-01-09T15:26:13.190Z,2.97
2023-01-09T15:28:43.815Z,2.37
2023-01-09T15:31:16.299Z,2.27
2023-01-09T15:33:44.784Z,3.07
2023-01-09T15:36:16.240Z,1.90
2023-01-09T15:38:43.540Z,3.80
2023-01-09T15:41:37.119Z,2.40
2023-01-09T15:44:13.369Z,2.20
2023-01-09T15:46:40.445Z,2.43
2023-01-09T15:49:10.922Z,3.03
2023-01-09T15:51:37.444Z,2.83
2023-01-09T15:54:04.049Z,5.53
2023-01-09T15:56:30.670Z,3.77
2023-01-09T15:59:00.914Z,3.13
2023-01-09T16:01:32.162Z,8.13
2023-01-09T16:04:18.978Z,3.23
2023-01-09T16:06:50.614Z,6.97
2023-01-09T16:09:30.612Z,8.20
2023-01-09T16:12:02.582Z,6.17
2023-01-09T16:14:34.601Z,7.53
2023-01-09T16:17:07.568Z,5.97
2023-01-09T16:20:11.194Z,6.50
2023-01-09T16:22:51.880Z,4.63
2023-01-09T16:25:30.172Z,6.33
2023-01-09T16:28:15.378Z,3.47
2023-01-09T16:30:55.905Z,6.60
2023-01-09T16:33:27.132Z,7.30
2023-01-09T16:35:53.958Z,12.00
2023-01-09T16:38:22.607Z,13.80
2023-01-09T16:41:18.397Z,8.33
2023-01-09T16:43:45.404Z,9.83
2023-01-09T16:46:13.185Z,8.67
2023-01-09T16:48:40.298Z,7.93
2023-01-09T16:51:06.914Z,6.77
2023-01-09T16:53:33.310Z,6.73
2023-01-09T16:56:00.065Z,6.33
2023-01-09T16:58:29.078Z,4.47
2023-01-09T17:00:55.963Z,11.07
2023-01-09T17:03:22.609Z,11.50
2023-01-09T17:05:55.229Z,5.60
2023-01-09T17:08:24.751Z,4.90
2023-01-09T17:10:54.437Z,5.33
2023-01-09T17:13:21.140Z,5.57
2023-01-09T17:15:48.081Z,6.27
2023-01-09T17:18:16.501Z,7.13
2023-01-09T17:20:44.970Z,11.03
2023-01-09T17:23:11.759Z,7.67
2023-01-09T17:25:56.730Z,9.37
2023-01-09T17:28:32.772Z,6.30
2023-01-09T17:31:09.122Z,8.47
2023-01-09T17:33:36.727Z,7.63
2023-01-09T17:36:16.076Z,4.93
2023-01-09T17:38:42.503Z,4.43
2023-01-09T17:41:12.576Z,4.67
2023-01-09T17:43:40.876Z,5.87
2023-01-09T17:46:15.053Z,7.27
2023-01-09T17:48:41.566Z,7.40
2023-01-09T17:51:09.459Z,7.07
2023-01-09T17:53:36.051Z,4.70
2023-01-09T17:56:03.128Z,4.57
2023-01-09T17:58:32.461Z,6.60
2023-01-09T18:00:59.429Z,6.40
2023-01-09T18:03:31.027Z,8.77
2023-01-09T18:05:57.757Z,10.43
2023-01-09T18:08:24.220Z,10.87
2023-01-09T18:10:50.763Z,7.73
2023-01-09T18:13:17.373Z,6.50
2023-01-09T18:15:45.025Z,15.57
2023-01-09T18:18:12.919Z,4.73
2023-01-09T18:20:43.793Z,5.50
2023-01-09T18:23:11.069Z,8.23
2023-01-09T18:25:42.054Z,6.13
2023-01-09T18:28:09.548Z,7.53
2023-01-09T18:30:36.576Z,6.97
2023-01-09T18:33:04.036Z,5.60
2023-01-09T18:35:33.178Z,5.30
2023-01-09T18:37:59.593Z,3.47
2023-01-09T18:40:26.046Z,5.17
2023-01-09T18:42:52.570Z,7.53
2023-01-09T18:45:18.943Z,8.03
2023-01-09T18:47:45.355Z,4.93
2023-01-09T18:50:11.941Z,6.17
2023-01-09T18:52:38.342Z,4.30
2023-01-09T18:55:05.248Z,3.47
2023-01-09T18:57:31.647Z,2.83
2023-01-09T18:59:58.569Z,3.67
2023-01-09T19:02:26.015Z,5.53
2023-01-09T19:04:52.900Z,18.73
2023-01-09T19:07:19.366Z,8.13
2023-01-09T19:09:46.385Z,10.83
2023-01-09T19:12:12.877Z,5.33
2023-01-09T19:14:39.324Z,5.90
2023-01-09T19:17:05.786Z,5.23
2023-01-09T19:19:33.970Z,5.83
2023-01-09T19:22:00.421Z,5.53
2023-01-09T19:24:27.276Z,4.23
2023-01-09T19:26:54.155Z,4.40
2023-01-09T19:29:20.577Z,4.07
2023-01-09T19:31:48.609Z,5.43
2023-01-09T19:34:16.073Z,4.53
2023-01-09T19:36:44.647Z,27.63
2023-01-09T19:39:11.433Z,16.83
2023-01-09T19:41:38.084Z,21.63
2023-01-09T19:44:04.624Z,11.97
2023-01-09T19:46:33.503Z,7.07
2023-01-09T19:49:04.469Z,8.70
2023-01-09T19:51:32.622Z,7.10
2023-01-09T19:56:28.376Z,8.97
2023-01-09T19:58:56.612Z,5.87
2023-01-09T20:01:26.667Z,7.80
2023-01-09T20:03:54.373Z,5.93
2023-01-09T20:06:47.058Z,9.00
2023-01-09T20:09:15.730Z,5.83
2023-01-09T20:11:44.559Z,7.27
2023-01-09T20:14:12.902Z,6.77
2023-01-09T20:16:39.719Z,5.20
2023-01-09T20:19:08.568Z,4.00
2023-01-09T20:21:35.876Z,8.27
2023-01-09T20:24:05.267Z,4.63
2023-01-09T20:26:36.193Z,3.73
2023-01-09T20:29:04.443Z,6.07
2023-01-09T20:31:31.709Z,7.73
2023-01-09T20:34:01.572Z,3.87
2023-01-09T20:36:30.209Z,8.40
2023-01-09T20:38:58.807Z,4.13
2023-01-09T20:41:26.000Z,4.43
2023-01-09T20:43:57.363Z,4.17
2023-01-09T20:46:26.676Z,4.27
2023-01-09T20:48:57.465Z,3.17
2023-01-09T20:51:25.062Z,4.20
2023-01-09T20:53:58.507Z,4.93
2023-01-09T20:56:26.421Z,3.00
2023-01-09T20:58:53.180Z,3.90
2023-01-09T21:01:20.427Z,4.60
2023-01-09T21:03:47.025Z,2.87
2023-01-09T21:06:15.125Z,4.80
2023-01-09T21:08:42.925Z,4.47
2023-01-09T21:11:10.419Z,3.93
2023-01-09T21:13:37.302Z,4.83
2023-01-09T21:16:19.926Z,3.10
2023-01-09T21:18:47.216Z,4.77
2023-01-09T21:21:16.300Z,3.73
2023-01-09T21:23:47.461Z,3.07
2023-01-09T21:26:14.879Z,3.53
2023-01-09T21:28:46.257Z,3.93
2023-01-09T21:31:13.757Z,2.60
2023-01-09T21:33:40.731Z,2.23
2023-01-09T21:36:07.573Z,3.90
2023-01-09T21:38:34.186Z,4.73
2023-01-09T21:41:20.528Z,4.43
2023-01-09T21:44:05.353Z,3.40
2023-01-09T21:46:50.440Z,2.50
2023-01-09T21:49:17.256Z,5.60
2023-01-09T21:51:44.384Z,2.87
2023-01-09T21:54:11.200Z,3.23
2023-01-09T21:56:37.840Z,3.60
2023-01-09T21:59:04.717Z,3.10
2023-01-09T22:01:31.232Z,4.07
2023-01-09T22:03:57.684Z,3.47
2023-01-09T22:06:24.837Z,2.43
2023-01-09T22:08:51.614Z,3.30
2023-01-09T22:11:18.077Z,3.87
2023-01-09T22:13:48.908Z,2.67
2023-01-09T22:16:15.435Z,2.47
2023-01-09T22:18:41.892Z,2.10
2023-01-09T22:21:08.643Z,3.30
2023-01-09T22:23:35.050Z,3.33
2023-01-09T22:26:13.115Z,3.60
2023-01-09T22:28:40.302Z,2.80
2023-01-09T22:31:14.816Z,3.70
2023-01-09T22:33:41.285Z,2.30
2023-01-09T22:36:09.993Z,2.63
2023-01-09T22:38:36.873Z,4.20
2023-01-09T22:41:04.411Z,3.23
2023-01-09T22:43:31.125Z,3.50
2023-01-09T22:46:02.043Z,4.57
2023-01-09T22:48:31.600Z,3.53
2023-01-09T22:51:21.504Z,2.90
2023-01-09T22:53:48.654Z,3.10
2023-01-09T22:56:17.647Z,2.67
2023-01-09T22:58:44.111Z,2.47
2023-01-09T23:01:12.215Z,2.97
2023-01-09T23:03:39.639Z,3.03
2023-01-09T23:06:11.280Z,3.40
2023-01-09T23:08:38.131Z,2.40
2023-01-09T23:11:06.739Z,2.30
2023-01-09T23:13:33.278Z,3.87
2023-01-09T23:15:59.914Z,2.30
2023-01-09T23:18:26.321Z,2.33
2023-01-09T23:20:54.881Z,3.63
2023-01-09T23:23:22.159Z,2.70
2023-01-09T23:25:53.312Z,3.60
2023-01-09T23:28:20.369Z,3.30
2023-01-09T23:30:47.380Z,3.27
2023-01-09T23:33:14.480Z,3.47
2023-01-09T23:35:40.911Z,3.70
2023-01-09T23:38:07.466Z,4.43
2023-01-09T23:40:36.296Z,3.20
2023-01-09T23:43:08.871Z,2.67
2023-01-09T23:45:36.710Z,3.10
2023-01-09T23:48:05.071Z,3.40
2023-01-09T23:50:31.757Z,4.00
2023-01-09T23:52:58.415Z,3.53
2023-01-09T23:55:25.457Z,6.30
2023-01-09T23:57:55.271Z,4.17
